.
WxDataArchive / Data Records for 2013-08-12
2013-08-11 August 2013 2013-08-13

Data Records for Monday, 12 August 2013

Time	Temp	Chill	HIndex	Humid	Dewpt	 Wind 	HiWind	WindDir	Rain 	Barom 
-----	----	-----	------	-----	-----	------	------	-------	-----	----- 
00:00	67.6	67.6	67.6	80	61.2	0	0	---	0.00	30.057 
00:05	67.6	67.6	67.6	80	61.2	0	0	---	0.00	30.057 
00:10	67.6	67.6	67.6	80	61.2	0	0	---	0.00	30.057 
00:15	67.6	67.6	67.6	81	61.6	0	0	---	0.00	30.056 
00:20	67.6	67.6	67.6	81	61.6	0	0	---	0.00	30.056 
00:25	67.6	67.6	67.6	81	61.6	0	0	---	0.00	30.056 
00:30	67.6	67.6	67.6	81	61.6	0	0	---	0.00	30.051 
00:35	67.6	67.6	67.6	80	61.2	0	0	---	0.00	30.051 
00:40	67.6	67.6	67.6	80	61.2	0	0	---	0.00	30.051 
00:45	67.6	67.6	67.6	80	61.2	0	0	---	0.00	30.051 
00:50	67.6	67.6	67.6	81	61.6	0	0	---	0.00	30.051 
00:55	67.4	67.4	67.4	81	61.4	0	0	---	0.00	30.051 
01:00	67.4	67.4	67.4	81	61.4	0	0	---	0.00	30.052 
01:05	67.3	67.3	67.3	81	61.3	0	0	---	0.00	30.052 
01:10	67.3	67.3	67.3	81	61.3	0	0	---	0.00	30.052 
01:15	67.3	67.3	67.3	82	61.6	0	0	---	0.00	30.047 
01:20	67.1	67.1	67.1	82	61.4	0	0	---	0.00	30.047 
01:25	67.1	67.1	67.1	83	61.8	0	0	---	0.00	30.047 
01:30	66.9	66.9	66.9	83	61.6	0	0	---	0.00	30.046 
01:35	66.9	66.9	66.9	83	61.6	0	0	---	0.00	30.046 
01:40	66.9	66.9	66.9	83	61.6	0	0	---	0.00	30.046 
01:45	66.8	66.8	66.8	83	61.5	0	0	---	0.00	30.044 
01:50	66.6	66.6	66.6	83	61.3	0	0	---	0.00	30.044 
01:55	66.6	66.6	66.6	83	61.3	0	0	---	0.00	30.044 
02:00	66.6	66.6	66.6	83	61.3	0	0	---	0.00	30.041 
02:05	66.4	66.4	66.4	84	61.4	0	0	---	0.00	30.041 
02:10	66.4	66.4	66.4	84	61.4	0	0	---	0.00	30.041 
02:15	66.4	66.4	66.4	84	61.4	0	0	---	0.00	30.039 
02:20	66.3	66.3	66.3	84	61.3	0	0	---	0.00	30.039 
02:25	66.1	66.1	66.1	84	61.1	0	0	---	0.00	30.039 
02:30	66.1	66.1	66.1	84	61.1	0	0	---	0.00	30.036 
02:35	66.0	66.0	66.0	84	61.0	0	0	---	0.00	30.036 
02:40	65.8	65.8	65.8	84	60.8	0	0	---	0.00	30.036 
02:45	65.8	65.8	65.8	85	61.2	0	0	---	0.00	30.032 
02:50	65.6	65.6	65.6	85	61.0	0	0	---	0.00	30.032 
02:55	65.6	65.6	65.6	85	61.0	0	0	---	0.00	30.032 
03:00	65.5	65.5	65.5	86	61.2	0	0	---	0.00	30.028 
03:05	65.5	65.5	65.5	86	61.2	0	0	---	0.00	30.028 
03:10	65.3	65.3	65.3	86	61.0	0	0	---	0.00	30.028 
03:15	65.2	65.2	65.2	87	61.2	0	0	---	0.00	30.028 
03:20	65.2	65.2	65.2	87	61.2	0	0	---	0.00	30.028 
03:25	65.0	65.0	65.0	87	61.0	0	0	---	0.00	30.028 
03:30	64.8	64.8	64.8	87	60.8	0	0	---	0.00	30.028 
03:35	64.7	64.7	64.7	88	61.1	0	0	---	0.00	30.028 
03:40	64.5	64.5	64.5	88	60.9	0	0	---	0.00	30.028 
03:45	64.5	64.5	64.5	88	60.9	0	0	---	0.00	30.026 
03:50	64.3	64.3	64.3	88	60.7	0	0	---	0.00	30.026 
03:55	64.2	64.2	64.2	88	60.6	0	0	---	0.00	30.026 
04:00	64.0	64.0	64.0	89	60.7	0	0	---	0.00	30.024 
04:05	63.9	63.9	63.9	89	60.6	0	0	---	0.00	30.024 
04:10	63.7	63.7	63.7	89	60.4	0	0	---	0.00	30.024 
04:15	63.5	63.5	63.5	90	60.5	0	0	---	0.00	30.019 
04:20	63.4	63.4	63.4	90	60.4	0	0	---	0.00	30.019 
04:25	63.4	63.4	63.4	90	60.4	0	0	---	0.00	30.019 
04:30	63.2	63.2	63.2	90	60.2	0	0	---	0.00	30.025 
04:35	63.2	63.2	63.2	90	60.2	0	0	---	0.00	30.025 
04:40	63.1	63.1	63.1	91	60.4	0	0	---	0.00	30.025 
04:45	63.1	63.1	63.1	91	60.4	0	0	---	0.00	30.022 
04:50	62.9	62.9	62.9	91	60.2	0	0	---	0.00	30.022 
04:55	62.9	62.9	62.9	91	60.2	0	0	---	0.00	30.022 
05:00	62.7	62.7	62.7	91	60.0	0	0	---	0.00	30.015 
05:05	62.7	62.7	62.7	91	60.0	0	0	---	0.00	30.015 
05:10	62.6	62.6	62.6	91	59.9	0	0	---	0.00	30.015 
05:15	62.6	62.6	62.6	91	59.9	0	0	---	0.00	30.013 
05:20	62.4	62.4	62.4	92	60.0	0	0	---	0.00	30.013 
05:25	62.4	62.4	62.4	92	60.0	0	0	---	0.00	30.013 
05:30	62.4	62.4	62.4	92	60.0	0	0	---	0.00	30.014 
05:35	62.4	62.4	62.4	92	60.0	0	0	---	0.00	30.014 
05:40	62.3	62.3	62.3	92	59.9	0	0	---	0.00	30.014 
05:45	62.1	62.1	62.1	92	59.7	0	0	---	0.00	30.014 
05:50	62.1	62.1	62.1	92	59.7	0	0	---	0.00	30.014 
05:55	62.1	62.1	62.1	92	59.7	0	0	---	0.00	30.014 
06:00	62.1	62.1	62.1	92	59.7	0	0	---	0.00	30.020 
06:05	62.0	62.0	62.0	92	59.6	0	0	---	0.00	30.020 
06:10	62.0	62.0	62.0	92	59.6	0	0	---	0.00	30.020 
06:15	62.0	62.0	62.0	92	59.6	0	0	---	0.00	30.026 
06:20	62.0	62.0	62.0	92	59.6	0	0	---	0.00	30.026 
06:25	61.8	61.8	61.8	92	59.4	0	0	---	0.00	30.026 
06:30	61.8	61.8	61.8	93	59.8	0	0	---	0.00	30.028 
06:35	61.8	61.8	61.8	93	59.8	0	0	---	0.00	30.028 
06:40	61.8	61.8	61.8	93	59.8	0	0	---	0.00	30.028 
06:45	61.8	61.8	61.8	93	59.8	0	0	---	0.00	30.031 
06:50	62.0	62.0	62.0	93	59.9	0	0	---	0.00	30.031 
06:55	62.0	62.0	62.0	93	59.9	0	0	---	0.00	30.031 
07:00	62.0	62.0	62.0	93	59.9	0	0	---	0.00	30.033 
07:05	62.1	62.1	62.1	93	60.0	0	0	---	0.00	30.033 
07:10	62.1	62.1	62.1	93	60.0	0	0	---	0.00	30.033 
07:15	62.3	62.3	62.3	94	60.5	0	0	---	0.00	30.030 
07:20	62.4	62.4	62.4	94	60.6	0	0	---	0.00	30.030 
07:25	62.4	62.4	62.4	94	60.6	0	0	---	0.00	30.030 
07:30	62.6	62.6	62.6	94	60.8	0	0	---	0.00	30.024 
07:35	62.9	62.9	62.9	94	61.1	0	0	---	0.00	30.024 
07:40	63.1	63.1	63.1	94	61.3	0	0	---	0.00	30.024 
07:45	63.4	63.4	63.4	94	61.6	0	0	---	0.00	30.020 
07:50	63.7	63.7	63.7	94	61.9	0	0	---	0.00	30.020 
07:55	64.0	64.0	64.0	94	62.2	0	0	---	0.00	30.020 
08:00	64.5	64.5	64.5	94	62.7	0	0	---	0.00	30.017 
08:05	64.8	64.8	64.8	94	63.0	0	0	---	0.00	30.017 
08:10	65.3	65.3	65.3	93	63.2	0	0	---	0.00	30.017 
08:15	65.8	65.8	65.8	93	63.7	0	0	---	0.00	30.016 
08:20	66.3	66.3	66.3	92	63.9	0	0	---	0.00	30.016 
08:25	66.9	66.9	66.9	92	64.5	0	2	270	0.00	30.016 
08:30	67.6	67.6	67.6	89	64.2	0	1	270	0.00	30.004 
08:35	68.3	68.3	68.3	88	64.6	0	0	---	0.00	30.004 
08:40	68.8	68.8	68.8	85	64.1	0	1	270	0.00	30.004 
08:45	69.4	69.4	69.4	83	64.0	0	1	270	0.00	30.001 
08:50	69.9	69.9	69.9	80	63.4	0	2	270	0.00	30.001 
08:55	70.4	70.4	70.4	79	63.6	0	1	270	0.00	30.001 
09:00	70.9	70.9	70.9	78	63.7	0	2	270	0.00	29.999 
09:05	71.5	71.5	71.5	78	64.3	0	1	270	0.00	29.999 
09:10	71.8	71.8	71.8	77	64.2	0	1	270	0.00	29.999 
09:15	72.3	72.3	72.3	75	63.9	0	1	270	0.00	29.998 
09:20	72.7	72.7	72.7	75	64.3	0	2	270	0.00	29.998 
09:25	73.2	73.2	73.2	73	64.0	0	2	270	0.00	29.998 
09:30	73.5	73.5	73.5	73	64.3	0	3	270	0.00	29.997 
09:35	73.9	73.9	73.9	74	65.1	0	3	270	0.00	29.997 
09:40	74.2	74.2	74.2	71	64.2	0	3	270	0.00	29.997 
09:45	74.2	74.2	74.2	70	63.8	0	2	270	0.00	29.995 
09:50	74.4	74.4	74.4	71	64.4	1	4	270	0.00	29.995 
09:55	74.6	74.6	74.6	70	64.2	0	2	270	0.00	29.995 
10:00	74.9	74.9	74.9	70	64.4	0	2	270	0.00	29.984 
10:05	75.4	75.4	77.1	69	64.5	0	1	270	0.00	29.984 
10:10	76.0	76.0	77.8	67	64.2	0	3	270	0.00	29.984 
10:15	76.3	76.3	78.1	66	64.1	0	1	270	0.00	29.984 
10:20	76.7	76.7	78.5	66	64.5	0	2	270	0.00	29.984 
10:25	77.2	77.2	79.0	64	64.1	0	2	270	0.00	29.984 
10:30	77.2	77.2	79.0	63	63.6	1	4	270	0.00	29.984 
10:35	77.0	77.0	78.8	63	63.4	1	3	270	0.00	29.984 
10:40	77.2	77.2	79.0	63	63.6	1	2	270	0.00	29.984 
10:45	76.8	76.8	78.6	64	63.7	0	2	270	0.00	29.985 
10:50	76.7	76.7	78.5	64	63.6	0	3	270	0.00	29.985 
10:55	76.5	76.5	78.3	65	63.8	1	3	270	0.00	29.985 
11:00	76.5	76.5	78.3	65	63.8	0	2	270	0.00	29.989 
11:05	76.7	76.7	78.5	66	64.5	0	1	270	0.00	29.989 
11:10	76.8	76.8	78.6	65	64.1	0	3	270	0.00	29.989 
11:15	77.0	77.0	78.8	64	63.9	1	2	270	0.00	29.988 
11:20	77.2	77.2	79.0	63	63.6	1	2	270	0.00	29.988 
11:25	77.7	77.7	79.5	64	64.5	0	2	292	0.00	29.988 
11:30	77.9	77.9	79.6	62	63.8	0	2	292	0.00	29.981 
11:35	78.6	78.6	80.3	61	64.0	1	3	270	0.00	29.981 
11:40	78.8	78.8	80.5	61	64.2	1	4	270	0.00	29.981 
11:45	79.2	79.2	81.1	62	65.0	0	2	270	0.00	29.976 
11:50	79.6	79.6	81.6	63	65.9	0	2	292	0.00	29.976 
11:55	79.8	79.8	81.6	60	64.7	1	3	292	0.00	29.976 
12:00	79.9	79.9	81.8	61	65.2	1	3	292	0.00	29.973 
12:05	79.9	79.9	81.5	58	63.8	1	3	292	0.00	29.973 
12:10	80.3	80.3	81.9	58	64.2	1	2	292	0.00	29.973 
12:15	80.5	80.5	82.3	59	64.8	1	3	292	0.00	29.973 
12:20	81.1	81.1	82.9	58	64.9	0	2	292	0.00	29.973 
12:25	81.6	81.6	83.5	58	65.4	1	4	68	0.00	29.973 
12:30	81.8	81.8	83.6	57	65.0	1	3	338	0.00	29.966 
12:35	81.8	81.8	83.5	56	64.5	1	3	338	0.00	29.966 
12:40	82.0	82.0	83.7	56	64.7	0	3	292	0.00	29.966 
12:45	82.2	82.2	84.2	57	65.4	0	3	248	0.00	29.963 
12:50	82.6	82.6	84.7	57	65.8	0	3	180	0.00	29.963 
12:55	82.2	82.2	83.8	55	64.4	1	4	270	0.00	29.963 
13:00	82.0	82.0	83.6	55	64.2	1	3	292	0.00	29.962 
13:05	81.8	81.8	83.2	54	63.5	1	2	292	0.00	29.962 
13:10	82.0	82.0	83.4	54	63.7	1	3	292	0.00	29.962 
13:15	82.4	82.4	84.1	55	64.6	0	2	248	0.00	29.953 
13:20	82.8	82.8	84.6	55	65.0	1	4	292	0.00	29.953 
13:25	83.2	83.2	84.9	54	64.8	1	3	292	0.00	29.953 
13:30	83.0	83.0	84.7	54	64.6	1	2	270	0.00	29.946 
13:35	83.0	83.0	84.9	55	65.1	1	3	270	0.00	29.946 
13:40	83.2	83.2	84.9	54	64.8	1	4	270	0.00	29.946 
13:45	83.2	83.2	84.9	54	64.8	1	3	22	0.00	29.945 
13:50	83.2	83.2	84.7	53	64.3	2	4	292	0.00	29.945 
13:55	83.2	83.2	84.9	54	64.8	1	3	292	0.00	29.945 
14:00	83.6	83.6	85.7	55	65.7	0	3	22	0.00	29.943 
14:05	83.6	83.6	85.2	53	64.6	1	3	292	0.00	29.943 
14:10	83.2	83.2	85.1	55	65.3	1	2	292	0.00	29.943 
14:15	83.4	83.4	85.2	54	65.0	1	3	315	0.00	29.938 
14:20	83.8	83.8	85.7	54	65.3	1	3	315	0.00	29.938 
14:25	84.0	84.0	85.8	53	65.0	1	4	315	0.00	29.938 
14:30	83.8	83.8	85.3	52	64.3	2	4	270	0.00	29.930 
14:35	83.8	83.8	84.9	50	63.1	1	3	270	0.00	29.930 
14:40	84.0	84.0	85.6	52	64.4	1	3	90	0.00	29.930 
14:45	84.5	84.5	86.7	54	66.0	0	1	90	0.00	29.926 
14:50	84.9	84.9	86.3	50	64.2	1	3	112	0.00	29.926 
14:55	84.5	84.5	86.0	51	64.4	2	4	90	0.00	29.926 
15:00	84.5	84.5	86.3	52	64.9	1	2	90	0.00	29.917 
15:05	84.1	84.1	85.9	53	65.1	1	3	90	0.00	29.917 
15:10	83.6	83.6	85.5	54	65.2	1	2	90	0.00	29.917 
15:15	83.4	83.4	85.2	54	65.0	1	3	90	0.00	29.915 
15:20	83.4	83.4	85.6	56	66.0	0	2	338	0.00	29.915 
15:25	84.0	84.0	86.0	54	65.5	0	2	338	0.00	29.915 
15:30	84.0	84.0	86.3	55	66.1	0	2	112	0.00	29.906 
15:35	83.8	83.8	85.7	54	65.3	0	2	90	0.00	29.906 
15:40	84.0	84.0	85.8	53	65.0	1	4	292	0.00	29.906 
15:45	84.0	84.0	85.6	52	64.4	2	5	270	0.00	29.904 
15:50	84.0	84.0	85.8	53	65.0	1	3	270	0.00	29.904 
15:55	84.1	84.1	86.2	54	65.6	1	4	270	0.00	29.904 
16:00	84.0	84.0	86.3	55	66.1	1	4	315	0.00	29.893 
16:05	84.0	84.0	85.8	53	65.0	1	4	292	0.00	29.893 
16:10	83.4	83.4	85.0	53	64.4	0	3	292	0.00	29.893 
16:15	83.4	83.4	85.6	56	66.0	1	4	292	0.00	29.889 
16:20	83.8	83.8	85.7	54	65.3	0	3	112	0.00	29.889 
16:25	84.1	84.1	85.7	52	64.5	1	3	112	0.00	29.889 
16:30	84.3	84.3	86.2	53	65.3	1	2	112	0.00	29.886 
16:35	84.7	84.7	86.5	52	65.1	0	2	112	0.00	29.886 
16:40	84.9	84.9	86.1	49	63.6	1	3	112	0.00	29.886 
16:45	84.7	84.7	86.3	51	64.5	1	3	112	0.00	29.882 
16:50	84.7	84.7	86.3	51	64.5	0	3	112	0.00	29.882 
16:55	84.9	84.9	86.3	50	64.2	0	2	112	0.00	29.882 
17:00	85.1	85.1	86.1	48	63.2	1	3	112	0.00	29.879 
17:05	84.7	84.7	85.6	48	62.8	0	2	112	0.00	29.879 
17:10	84.1	84.1	85.0	49	62.8	1	2	112	0.00	29.879 
17:15	83.6	83.6	84.6	50	63.0	1	4	270	0.00	29.878 
17:20	83.2	83.2	84.3	51	63.2	1	3	270	0.00	29.878 
17:25	82.6	82.6	83.8	52	63.2	0	2	45	0.00	29.878 
17:30	82.4	82.4	83.9	54	64.1	0	1	22	0.00	29.876 
17:35	82.4	82.4	83.9	54	64.1	1	2	248	0.00	29.876 
17:40	82.2	82.2	84.0	56	64.9	1	2	248	0.00	29.876 
17:45	82.2	82.2	83.8	55	64.4	0	1	248	0.00	29.872 
17:50	82.2	82.2	83.6	54	63.9	0	2	248	0.00	29.872 
17:55	82.2	82.2	83.6	54	63.9	0	2	248	0.00	29.872 
18:00	82.0	82.0	83.7	56	64.7	0	2	248	0.00	29.870 
18:05	81.8	81.8	83.6	57	65.0	0	2	248	0.00	29.870 
18:10	81.6	81.6	83.2	56	64.4	0	2	248	0.00	29.870 
18:15	81.4	81.4	83.0	56	64.2	0	1	248	0.00	29.865 
18:20	81.2	81.2	82.9	57	64.5	0	2	248	0.00	29.865 
18:25	81.2	81.2	83.0	58	65.0	0	2	248	0.00	29.865 
18:30	81.1	81.1	83.0	59	65.4	0	1	248	0.00	29.859 
18:35	81.1	81.1	83.0	59	65.4	0	1	248	0.00	29.859 
18:40	81.1	81.1	83.0	59	65.4	0	1	248	0.00	29.859 
18:45	81.1	81.1	83.2	60	65.9	0	1	248	0.00	29.857 
18:50	80.9	80.9	82.9	60	65.7	0	1	292	0.00	29.857 
18:55	80.9	80.9	82.9	60	65.7	0	1	292	0.00	29.857 
19:00	80.7	80.7	82.7	60	65.5	0	1	292	0.00	29.848 
19:05	80.5	80.5	82.4	60	65.3	0	1	292	0.00	29.848 
19:10	80.3	80.3	82.2	60	65.1	0	1	292	0.00	29.848 
19:15	80.3	80.3	82.2	60	65.1	0	1	292	0.00	29.841 
19:20	80.1	80.1	82.0	61	65.4	0	1	292	0.00	29.841 
19:25	79.9	79.9	81.8	61	65.2	0	1	292	0.00	29.841 
19:30	79.8	79.8	81.7	61	65.1	0	1	292	0.00	29.840 
19:35	79.8	79.8	81.8	62	65.6	0	1	292	0.00	29.840 
19:40	79.6	79.6	81.5	62	65.4	0	1	292	0.00	29.840 
19:45	79.6	79.6	81.5	62	65.4	0	1	292	0.00	29.840 
19:50	79.4	79.4	81.3	62	65.2	0	1	292	0.00	29.840 
19:55	79.2	79.2	81.1	62	65.0	0	1	292	0.00	29.840 
20:00	79.2	79.2	81.1	62	65.0	0	1	292	0.00	29.840 
20:05	79.2	79.2	81.1	62	65.0	0	1	292	0.00	29.840 
20:10	79.2	79.2	81.1	62	65.0	0	1	292	0.00	29.840 
20:15	79.2	79.2	81.1	62	65.0	0	1	292	0.00	29.836 
20:20	79.0	79.0	80.8	62	64.8	0	1	292	0.00	29.836 
20:25	78.8	78.8	80.7	63	65.1	0	1	292	0.00	29.836 
20:30	78.6	78.6	80.5	64	65.4	0	1	292	0.00	29.835 
20:35	78.5	78.5	80.4	64	65.3	0	1	292	0.00	29.835 
20:40	78.3	78.3	80.2	64	65.1	0	1	292	0.00	29.835 
20:45	78.1	78.1	79.9	64	64.9	0	0	---	0.00	29.825 
20:50	78.1	78.1	80.0	65	65.4	0	0	---	0.00	29.825 
20:55	77.9	77.9	79.7	65	65.2	0	1	292	0.00	29.825 
21:00	77.9	77.9	79.7	65	65.2	0	1	292	0.00	29.828 
21:05	77.7	77.7	79.6	66	65.4	0	0	---	0.00	29.828 
21:10	77.6	77.6	79.4	66	65.3	0	0	---	0.00	29.828 
21:15	77.2	77.2	79.0	67	65.4	0	0	---	0.00	29.821 
21:20	77.0	77.0	78.8	68	65.6	0	0	---	0.00	29.821 
21:25	76.8	76.8	78.6	69	65.8	0	0	---	0.00	29.821 
21:30	76.7	76.7	78.4	69	65.7	0	0	---	0.00	29.834 
21:35	76.7	76.7	78.4	69	65.7	0	1	292	0.00	29.834 
21:40	76.7	76.7	78.4	69	65.7	0	1	292	0.00	29.834 
21:45	76.7	76.7	78.4	70	66.2	0	1	292	0.00	29.842 
21:50	76.5	76.5	78.2	70	66.0	0	1	292	0.00	29.842 
21:55	76.7	76.7	78.4	70	66.2	0	1	292	0.00	29.842 
22:00	76.7	76.7	78.4	70	66.2	0	1	292	0.00	29.839 
22:05	76.7	76.7	78.4	70	66.2	0	1	292	0.00	29.839 
22:10	76.7	76.7	78.4	70	66.2	0	1	292	0.00	29.839 
22:15	76.5	76.5	78.2	71	66.4	0	1	292	0.00	29.844 
22:20	76.5	76.5	78.2	71	66.4	0	0	---	0.00	29.844 
22:25	76.3	76.3	77.9	72	66.6	0	1	292	0.00	29.844 
22:30	76.3	76.3	77.9	72	66.6	0	1	292	0.00	29.845 
22:35	76.1	76.1	77.7	72	66.4	0	1	292	0.00	29.845 
22:40	76.1	76.1	77.6	73	66.8	0	1	292	0.00	29.845 
22:45	76.1	76.1	77.6	73	66.8	0	1	292	0.00	29.851 
22:50	76.1	76.1	77.7	72	66.4	2	5	270	0.00	29.851 
22:55	75.6	75.6	77.3	69	64.7	3	7	292	0.00	29.851 
23:00	74.9	74.9	74.9	68	63.6	4	11	292	0.00	29.855 
23:05	74.4	74.4	74.4	69	63.5	2	5	270	0.00	29.855 
23:10	73.9	73.9	73.9	70	63.5	1	4	315	0.00	29.855 
23:15	73.2	73.2	73.2	71	63.2	2	5	292	0.00	29.852 
23:20	72.7	72.7	72.7	72	63.1	1	3	292	0.00	29.852 
23:25	72.3	72.3	72.3	74	63.5	1	3	315	0.00	29.852 
23:30	72.0	72.0	72.0	77	64.4	1	2	315	0.00	29.849 
23:35	71.5	71.5	71.5	78	64.3	1	4	270	0.00	29.849 
23:40	70.9	70.9	70.9	80	64.4	0	1	270	0.00	29.849 
23:45	70.6	70.6	70.6	81	64.5	0	1	270	0.00	29.837 
23:50	70.4	70.4	70.4	83	65.0	0	1	270	0.00	29.837 
23:55	70.3	70.3	70.3	83	64.9	0	1	270	0.00	29.837 

CoCoRaHS
IN-AL-39
A2 Web Hosting
Creative Commons License
GoDaddy
search engine by freefind advanced

loaded 2018-11-12 15:04:19 • last modified 2010-11-18 10:43:29
Privacy PolicyDisclaimer
• wx.awcolley.com is powered by PmWiki v.2002016 •
• all content (unless otherwise noted) © 2018 A W Colley